createdAt,value
2017-10-14T00:00:37.094Z,89.58
2017-10-14T00:01:45.931Z,89.48
2017-10-14T00:02:54.771Z,89.29
2017-10-14T00:04:03.617Z,89.19
2017-10-14T00:05:12.455Z,89.38
2017-10-14T00:06:21.292Z,89.48
2017-10-14T00:07:30.139Z,89.48
2017-10-14T00:08:38.978Z,89.58
2017-10-14T00:09:47.815Z,89.48
2017-10-14T00:10:56.654Z,89.48
2017-10-14T00:12:05.489Z,89.58
2017-10-14T00:13:14.329Z,89.76
2017-10-14T00:14:23.186Z,89.86
2017-10-14T00:15:32.366Z,89.76
2017-10-14T00:16:41.203Z,89.86
2017-10-14T00:17:50.053Z,89.95
2017-10-14T00:18:59.222Z,90.05
2017-10-14T00:20:08.064Z,89.95
2017-10-14T00:21:16.907Z,89.67
2017-10-14T00:22:25.743Z,89.86
2017-10-14T00:23:34.587Z,89.86
2017-10-14T00:24:43.421Z,89.86
2017-10-14T00:25:52.263Z,89.86
2017-10-14T00:27:01.104Z,89.76
2017-10-14T00:28:10.282Z,89.86
2017-10-14T00:29:19.123Z,90.34
2017-10-14T00:30:27.963Z,90.63
2017-10-14T00:31:36.807Z,90.05
2017-10-14T00:32:45.641Z,90.63
2017-10-14T00:33:54.485Z,89.95
2017-10-14T00:35:03.322Z,90.53
2017-10-14T00:36:12.162Z,90.44
2017-10-14T00:37:21.001Z,90.34
2017-10-14T00:38:29.858Z,90.72
2017-10-14T00:39:38.688Z,90.72
2017-10-14T00:40:47.527Z,90.44
2017-10-14T00:41:56.367Z,90.53
2017-10-14T00:43:05.208Z,90.34
2017-10-14T00:44:14.041Z,91.01
2017-10-14T00:45:22.883Z,90.72
2017-10-14T00:46:31.726Z,90.72
2017-10-14T00:47:40.564Z,91.01
2017-10-14T00:48:49.406Z,91.01
2017-10-14T00:49:58.246Z,90.82
2017-10-14T00:51:07.089Z,91.39
2017-10-14T00:52:15.929Z,91.11
2017-10-14T00:53:24.771Z,91.39
2017-10-14T00:54:33.942Z,91.39
2017-10-14T00:55:42.780Z,91.2
2017-10-14T00:56:51.625Z,91.39
2017-10-14T00:58:00.466Z,91.2
2017-10-14T00:59:09.308Z,91.3
2017-10-14T01:00:18.155Z,91.11
2017-10-14T01:01:26.997Z,91.3
2017-10-14T01:02:35.835Z,91.3
2017-10-14T01:03:44.682Z,91.11
2017-10-14T01:04:53.517Z,91.39
2017-10-14T01:06:02.355Z,91.58
2017-10-14T01:07:11.190Z,91.49
2017-10-14T01:08:20.036Z,91.58
2017-10-14T01:09:28.877Z,91.58
2017-10-14T01:10:37.723Z,91.49
2017-10-14T01:11:46.558Z,91.49
2017-10-14T01:12:55.400Z,91.39
2017-10-14T01:14:04.238Z,91.58
2017-10-14T01:15:13.081Z,91.58
2017-10-14T01:16:21.929Z,91.58
2017-10-14T01:17:31.110Z,91.49
2017-10-14T01:18:39.945Z,91.39
2017-10-14T01:19:48.783Z,91.58
2017-10-14T01:20:57.630Z,91.39
2017-10-14T01:22:06.474Z,91.77
2017-10-14T01:23:15.313Z,91.77
2017-10-14T01:24:24.165Z,92.35
2017-10-14T01:25:33.004Z,92.06
2017-10-14T01:26:41.845Z,91.87
2017-10-14T01:27:51.028Z,92.06
2017-10-14T01:28:59.874Z,92.44
2017-10-14T01:30:08.715Z,92.25
2017-10-14T01:31:17.561Z,92.25
2017-10-14T01:32:26.396Z,92.16
2017-10-14T01:33:35.237Z,92.35
2017-10-14T01:34:44.086Z,92.16
2017-10-14T01:35:52.923Z,92.16
2017-10-14T01:37:01.768Z,92.06
2017-10-14T01:38:10.604Z,92.16
2017-10-14T01:39:19.450Z,91.58
2017-10-14T01:40:28.293Z,91.87
2017-10-14T01:41:37.132Z,91.87
2017-10-14T01:42:45.969Z,92.06
2017-10-14T01:43:54.807Z,92.16
2017-10-14T01:45:03.647Z,91.87
2017-10-14T01:46:12.487Z,92.25
2017-10-14T01:47:21.336Z,91.97
2017-10-14T01:48:30.170Z,92.54
2017-10-14T01:49:39.009Z,92.06
2017-10-14T01:50:47.851Z,92.06
2017-10-14T01:51:57.029Z,92.25
2017-10-14T01:53:05.872Z,91.87
2017-10-14T01:54:14.723Z,92.06
2017-10-14T01:55:23.553Z,91.97
2017-10-14T01:56:32.727Z,92.06
2017-10-14T01:57:41.574Z,92.63
2017-10-14T01:58:50.420Z,92.44
2017-10-14T01:59:59.258Z,92.44
2017-10-14T02:01:08.102Z,92.06
2017-10-14T02:02:17.270Z,92.83
2017-10-14T02:03:26.113Z,93.12
2017-10-14T02:04:34.959Z,92.63
2017-10-14T02:05:43.800Z,92.83
2017-10-14T02:06:52.634Z,92.68
2017-10-14T02:08:01.478Z,92.63
2017-10-14T02:09:10.320Z,92.63
2017-10-14T02:10:19.158Z,92.35
2017-10-14T02:11:28.002Z,92.49
2017-10-14T02:12:36.840Z,92.63
2017-10-14T02:13:45.682Z,93.12
2017-10-14T02:14:54.524Z,93.3
2017-10-14T02:16:03.369Z,92.92
2017-10-14T02:17:12.206Z,92.92
2017-10-14T02:18:21.050Z,93.12
2017-10-14T02:19:29.898Z,92.97
2017-10-14T02:20:39.076Z,92.92
2017-10-14T02:21:47.920Z,92.92
2017-10-14T02:22:57.096Z,92.78
2017-10-14T02:24:05.932Z,92.73
2017-10-14T02:25:14.774Z,93.35
2017-10-14T02:26:23.618Z,92.92
2017-10-14T02:27:32.798Z,92.97
2017-10-14T02:28:41.634Z,93.35
2017-10-14T02:29:50.473Z,93.26
2017-10-14T02:30:59.308Z,93.07
2017-10-14T02:32:08.157Z,93.3
2017-10-14T02:33:17.335Z,93.12
2017-10-14T02:34:26.176Z,93.16
2017-10-14T02:35:35.018Z,93.54
2017-10-14T02:36:43.857Z,93.64
2017-10-14T02:37:52.696Z,93.64
2017-10-14T02:39:01.536Z,93.16
2017-10-14T02:40:10.377Z,93.83
2017-10-14T02:41:19.224Z,93.16
2017-10-14T02:42:28.067Z,93.64
2017-10-14T02:43:37.240Z,93.12
2017-10-14T02:44:46.082Z,93.35
2017-10-14T02:45:54.919Z,93.93
2017-10-14T02:47:04.101Z,93.93
2017-10-14T02:48:12.941Z,93.35
2017-10-14T02:49:21.779Z,93.93
2017-10-14T02:50:30.617Z,93.93
2017-10-14T02:51:39.454Z,93.45
2017-10-14T02:52:48.297Z,94.02
2017-10-14T02:53:57.151Z,93.74
2017-10-14T02:55:05.981Z,94.02
2017-10-14T02:56:14.817Z,93.83
2017-10-14T02:57:23.657Z,93.83
2017-10-14T02:58:32.500Z,93.74
2017-10-14T02:59:41.340Z,92.97
2017-10-14T03:00:50.184Z,93.35
2017-10-14T03:01:59.018Z,93.35
2017-10-14T03:03:07.906Z,93.64
2017-10-14T03:04:16.751Z,93.54
2017-10-14T03:05:25.588Z,93.45
2017-10-14T03:06:34.755Z,93.45
2017-10-14T03:07:43.677Z,93.35
2017-10-14T03:08:52.891Z,93.74
2017-10-14T03:10:01.872Z,93.45
2017-10-14T03:11:10.718Z,93.54
2017-10-14T03:12:19.560Z,93.64
2017-10-14T03:13:28.541Z,93.35
2017-10-14T03:14:37.953Z,93.64
2017-10-14T03:15:47.587Z,93.74
2017-10-14T03:16:56.739Z,93.35
2017-10-14T03:18:05.661Z,93.16
2017-10-14T03:19:15.178Z,93.83
2017-10-14T03:20:24.518Z,94.02
2017-10-14T03:21:33.359Z,93.74
2017-10-14T03:22:42.195Z,93.64
2017-10-14T03:23:51.366Z,93.54
2017-10-14T03:25:00.210Z,93.64
2017-10-14T03:26:09.126Z,93.64
2017-10-14T03:27:17.969Z,93.83
2017-10-14T03:28:27.010Z,93.54
2017-10-14T03:29:35.956Z,93.74
2017-10-14T03:30:45.030Z,93.64
2017-10-14T03:31:53.875Z,93.74
2017-10-14T03:33:03.152Z,93.45
2017-10-14T03:34:12.081Z,93.64
2017-10-14T03:35:20.974Z,93.83
2017-10-14T03:36:29.976Z,93.64
2017-10-14T03:37:38.939Z,93.54
2017-10-14T03:38:48.218Z,93.64
2017-10-14T03:39:57.709Z,93.54
2017-10-14T03:41:06.562Z,93.45
2017-10-14T03:42:16.007Z,93.54
2017-10-14T03:43:24.845Z,93.54
2017-10-14T03:44:34.518Z,93.64
2017-10-14T03:45:43.372Z,93.64
2017-10-14T03:46:52.207Z,93.64
2017-10-14T03:48:01.075Z,93.64
2017-10-14T03:49:09.922Z,93.45
2017-10-14T03:50:18.814Z,93.54
2017-10-14T03:51:27.989Z,93.45
2017-10-14T03:52:36.826Z,93.54
2017-10-14T03:53:45.668Z,93.45
2017-10-14T03:54:54.509Z,93.54
2017-10-14T03:56:03.353Z,93.74
2017-10-14T03:57:12.195Z,93.54
2017-10-14T03:58:21.039Z,93.54
2017-10-14T03:59:29.875Z,93.54
2017-10-14T04:00:38.716Z,93.45
2017-10-14T04:01:47.557Z,93.64
2017-10-14T04:02:56.397Z,93.74
2017-10-14T04:04:05.572Z,93.74
2017-10-14T04:05:14.414Z,93.64
2017-10-14T04:06:23.256Z,93.74
2017-10-14T04:07:32.092Z,94.21
2017-10-14T04:08:40.931Z,93.83
2017-10-14T04:09:49.772Z,93.93
2017-10-14T04:10:58.612Z,94.21
2017-10-14T04:12:07.465Z,93.54
2017-10-14T04:13:16.630Z,94.02
2017-10-14T04:14:25.466Z,94.02
2017-10-14T04:15:34.308Z,94.12
2017-10-14T04:16:43.489Z,94.12
2017-10-14T04:17:52.334Z,93.83
2017-10-14T04:19:01.172Z,93.83
2017-10-14T04:20:10.011Z,94.21
2017-10-14T04:21:18.846Z,94.12
2017-10-14T04:22:27.691Z,93.64
2017-10-14T04:23:36.531Z,93.74
2017-10-14T04:24:45.370Z,93.83
2017-10-14T04:25:54.206Z,94.02
2017-10-14T04:27:03.055Z,93.98
2017-10-14T04:28:11.889Z,93.74
2017-10-14T04:29:20.736Z,94.31
2017-10-14T04:30:29.578Z,94.21
2017-10-14T04:31:38.417Z,94.31
2017-10-14T04:32:47.597Z,94.12
2017-10-14T04:33:56.434Z,94.02
2017-10-14T04:35:05.277Z,94.12
2017-10-14T04:36:14.115Z,94.5
2017-10-14T04:37:22.959Z,94.31
2017-10-14T04:38:32.134Z,94.12
2017-10-14T04:39:40.975Z,94.21
2017-10-14T04:40:49.819Z,94.4
2017-10-14T04:41:58.663Z,94.79
2017-10-14T04:43:07.505Z,94.79
2017-10-14T04:44:16.346Z,94.64
2017-10-14T04:45:25.185Z,94.84
2017-10-14T04:46:34.021Z,94.79
2017-10-14T04:47:42.863Z,94.84
2017-10-14T04:48:51.703Z,94.31
2017-10-14T04:50:00.544Z,94.31
2017-10-14T04:51:09.388Z,94.4
2017-10-14T04:52:18.223Z,94.45
2017-10-14T04:53:27.064Z,94.84
2017-10-14T04:54:35.903Z,94.64
2017-10-14T04:55:44.742Z,94.64
2017-10-14T04:56:53.584Z,94.4
2017-10-14T04:58:02.426Z,94.5
2017-10-14T04:59:11.267Z,94.69
2017-10-14T05:00:20.104Z,94.79
2017-10-14T05:01:28.953Z,94.89
2017-10-14T05:02:37.791Z,94.98
2017-10-14T05:03:46.633Z,94.6
2017-10-14T05:04:55.475Z,94.98
2017-10-14T05:06:04.314Z,94.89
2017-10-14T05:07:13.152Z,94.55
2017-10-14T05:08:21.995Z,94.79
2017-10-14T05:09:31.177Z,94.98
2017-10-14T05:10:40.013Z,94.4
2017-10-14T05:11:48.854Z,94.93
2017-10-14T05:12:57.693Z,94.98
2017-10-14T05:14:06.533Z,94.69
2017-10-14T05:15:15.710Z,94.93
2017-10-14T05:16:24.548Z,95.03
2017-10-14T05:17:33.734Z,94.69
2017-10-14T05:18:42.573Z,94.6
2017-10-14T05:19:51.415Z,94.84
2017-10-14T05:21:00.254Z,94.74
2017-10-14T05:22:09.100Z,94.64
2017-10-14T05:23:17.937Z,94.6
2017-10-14T05:24:26.777Z,94.79
2017-10-14T05:25:35.616Z,94.5
2017-10-14T05:26:44.459Z,94.89
2017-10-14T05:27:53.301Z,95.03
2017-10-14T05:29:02.140Z,94.93
2017-10-14T05:30:11.315Z,95.12
2017-10-14T05:31:20.174Z,94.93
2017-10-14T05:32:29.000Z,94.93
2017-10-14T05:33:37.846Z,95.12
2017-10-14T05:34:46.685Z,95.12
2017-10-14T05:35:55.522Z,95.03
2017-10-14T05:37:04.361Z,94.93
2017-10-14T05:38:13.207Z,94.84
2017-10-14T05:39:22.067Z,94.64
2017-10-14T05:40:30.888Z,94.35
2017-10-14T05:41:39.737Z,94.45
2017-10-14T05:42:48.573Z,95.22
2017-10-14T05:43:58.090Z,95.03
2017-10-14T05:45:07.267Z,94.84
2017-10-14T05:46:16.105Z,94.84
2017-10-14T05:47:24.950Z,94.84
2017-10-14T05:48:33.791Z,94.55
2017-10-14T05:49:42.630Z,95.03
2017-10-14T05:50:51.467Z,95.12
2017-10-14T05:52:00.311Z,94.84
2017-10-14T05:53:09.152Z,95.12
2017-10-14T05:54:17.988Z,94.93
2017-10-14T05:55:26.827Z,95.22
2017-10-14T05:56:35.668Z,95.12
2017-10-14T05:57:44.511Z,95.03
2017-10-14T05:58:53.347Z,94.93
2017-10-14T06:00:02.194Z,94.93
2017-10-14T06:01:11.037Z,94.74
2017-10-14T06:02:19.880Z,95.22
2017-10-14T06:03:28.719Z,95.03
2017-10-14T06:04:37.557Z,95.12
2017-10-14T06:05:46.398Z,95.31
2017-10-14T06:06:55.242Z,95.12
2017-10-14T06:08:04.085Z,95.22
2017-10-14T06:09:12.924Z,94.84
2017-10-14T06:10:21.764Z,94.74
2017-10-14T06:11:30.601Z,95.31
2017-10-14T06:12:39.449Z,94.84
2017-10-14T06:13:48.635Z,94.35
2017-10-14T06:14:57.471Z,95.31
2017-10-14T06:16:06.311Z,94.55
2017-10-14T06:17:15.155Z,94.55
2017-10-14T06:18:23.998Z,94.55
2017-10-14T06:19:32.837Z,94.55
2017-10-14T06:20:41.684Z,94.93
2017-10-14T06:21:50.862Z,94.93
2017-10-14T06:22:59.697Z,94.93
2017-10-14T06:24:08.544Z,94.74
2017-10-14T06:25:17.381Z,94.55
2017-10-14T06:26:26.228Z,94.84
2017-10-14T06:27:35.065Z,94.45
2017-10-14T06:28:43.908Z,95.31
2017-10-14T06:29:52.743Z,95.12
2017-10-14T06:31:01.587Z,94.93
2017-10-14T06:32:10.432Z,95.22
2017-10-14T06:33:19.270Z,95.03
2017-10-14T06:34:28.117Z,95.03
2017-10-14T06:35:37.394Z,95.03
2017-10-14T06:36:46.388Z,94.45
2017-10-14T06:37:55.232Z,94.84
2017-10-14T06:39:04.070Z,94.45
2017-10-14T06:40:12.913Z,94.84
2017-10-14T06:41:21.758Z,94.45
2017-10-14T06:42:30.665Z,94.64
2017-10-14T06:43:39.504Z,94.74
2017-10-14T06:44:48.695Z,94.93
2017-10-14T06:45:57.533Z,94.74
2017-10-14T06:47:06.424Z,94.64
2017-10-14T06:48:15.263Z,94.74
2017-10-14T06:49:24.104Z,95.12
2017-10-14T06:50:32.949Z,94.89
2017-10-14T06:51:41.793Z,94.74
2017-10-14T06:52:50.636Z,94.69
2017-10-14T06:53:59.479Z,94.69
2017-10-14T06:55:08.319Z,94.5
2017-10-14T06:56:17.154Z,94.59
2017-10-14T06:57:25.999Z,94.12
2017-10-14T06:58:34.841Z,94.4
2017-10-14T06:59:43.682Z,94.12
2017-10-14T07:00:52.521Z,94.12
2017-10-14T07:02:01.368Z,94.02
2017-10-14T07:03:10.210Z,94.31
2017-10-14T07:04:19.047Z,94.31
2017-10-14T07:05:27.888Z,94.31
2017-10-14T07:06:36.727Z,94.31
2017-10-14T07:07:45.572Z,94.4
2017-10-14T07:08:54.412Z,94.31
2017-10-14T07:10:03.259Z,93.44
2017-10-14T07:11:12.433Z,93.44
2017-10-14T07:12:21.272Z,94.31
2017-10-14T07:13:30.117Z,93.83
2017-10-14T07:14:38.955Z,93.63
2017-10-14T07:15:47.803Z,93.63
2017-10-14T07:16:56.639Z,93.73
2017-10-14T07:18:05.815Z,93.54
2017-10-14T07:19:14.657Z,93.93
2017-10-14T07:20:23.501Z,93.16
2017-10-14T07:21:32.682Z,92.97
2017-10-14T07:22:41.522Z,92.97
2017-10-14T07:23:50.372Z,93.26
2017-10-14T07:24:59.204Z,93.35
2017-10-14T07:26:08.046Z,93.16
2017-10-14T07:27:16.888Z,93.44
2017-10-14T07:28:25.735Z,93.35
2017-10-14T07:29:34.579Z,92.39
2017-10-14T07:30:43.420Z,92.77
2017-10-14T07:31:52.261Z,92.77
2017-10-14T07:33:01.101Z,92.82
2017-10-14T07:34:09.943Z,92.39
2017-10-14T07:35:19.122Z,92.58
2017-10-14T07:36:27.968Z,92.63
2017-10-14T07:37:36.810Z,92.24
2017-10-14T07:38:45.666Z,92.05
2017-10-14T07:39:54.831Z,92.34
2017-10-14T07:41:03.671Z,92.2
2017-10-14T07:42:12.518Z,92.3
2017-10-14T07:43:21.357Z,92.2
2017-10-14T07:44:30.196Z,92.2
2017-10-14T07:45:39.039Z,92.24
2017-10-14T07:46:47.881Z,92.24
2017-10-14T07:47:56.725Z,92.24
2017-10-14T07:49:05.569Z,91.96
2017-10-14T07:50:14.409Z,92.15
2017-10-14T07:51:23.244Z,92.15
2017-10-14T07:52:32.097Z,92.34
2017-10-14T07:53:40.932Z,91.96
2017-10-14T07:54:49.774Z,92.24
2017-10-14T07:55:58.615Z,92.05
2017-10-14T07:57:07.465Z,91.67
2017-10-14T07:58:16.305Z,91.57
2017-10-14T07:59:25.144Z,91.67
2017-10-14T08:00:33.986Z,91.28
2017-10-14T08:01:42.823Z,91.19
2017-10-14T08:02:51.670Z,91
2017-10-14T08:04:00.514Z,91.42
2017-10-14T08:05:09.697Z,91
2017-10-14T08:06:18.537Z,90.71
2017-10-14T08:07:27.384Z,90.61
2017-10-14T08:08:36.562Z,90.47
2017-10-14T08:09:45.399Z,90.37
2017-10-14T08:10:54.244Z,90.28
2017-10-14T08:12:03.081Z,90.56
2017-10-14T08:13:11.918Z,90.37
2017-10-14T08:14:20.760Z,90.08
2017-10-14T08:15:29.602Z,89.89
2017-10-14T08:16:38.449Z,90.18
2017-10-14T08:17:47.627Z,89.51
2017-10-14T08:18:56.467Z,89.7
2017-10-14T08:20:05.303Z,89.7
2017-10-14T08:21:14.148Z,89.61
2017-10-14T08:22:22.992Z,89.51
2017-10-14T08:23:31.838Z,89.61
2017-10-14T08:24:40.683Z,89.03
2017-10-14T08:25:49.525Z,89.03
2017-10-14T08:26:58.365Z,88.84
2017-10-14T08:28:07.206Z,88.79
2017-10-14T08:29:16.049Z,88.65
2017-10-14T08:30:24.896Z,88.74
2017-10-14T08:31:33.737Z,88.74
2017-10-14T08:32:42.578Z,88.59
2017-10-14T08:33:51.419Z,88.45
2017-10-14T08:35:00.264Z,88.45
2017-10-14T08:36:09.104Z,87.88
2017-10-14T08:37:17.946Z,88.26
2017-10-14T08:38:26.793Z,88.31
2017-10-14T08:39:35.636Z,88.02
2017-10-14T08:40:44.472Z,88.11
2017-10-14T08:41:53.316Z,88.4
2017-10-14T08:43:02.160Z,88.49
2017-10-14T08:44:11.004Z,88.49
2017-10-14T08:45:19.846Z,89.03
2017-10-14T08:46:28.683Z,89.03
2017-10-14T08:47:37.527Z,89.07
2017-10-14T08:48:46.373Z,89.12
2017-10-14T08:49:55.216Z,89.03
2017-10-14T08:51:04.055Z,88.74
2017-10-14T08:52:12.904Z,89.03
2017-10-14T08:53:21.744Z,89.51
2017-10-14T08:54:30.587Z,89.32
2017-10-14T08:55:39.430Z,89.32
2017-10-14T08:56:48.269Z,89.41
2017-10-14T08:57:57.117Z,89.32
2017-10-14T08:59:05.958Z,89.41
2017-10-14T09:00:14.807Z,89.41
2017-10-14T09:01:23.646Z,89.32
2017-10-14T09:02:32.510Z,89.51
2017-10-14T09:03:41.353Z,89.61
2017-10-14T09:04:50.196Z,89.61
2017-10-14T09:05:59.039Z,89.7
2017-10-14T09:07:07.896Z,89.22
2017-10-14T09:08:16.738Z,89.41
2017-10-14T09:09:25.582Z,89.51
2017-10-14T09:10:34.427Z,89.7
2017-10-14T09:11:43.272Z,89.51
2017-10-14T09:12:52.113Z,89.41
2017-10-14T09:14:00.957Z,89.12
2017-10-14T09:15:09.797Z,89.12
2017-10-14T09:16:18.977Z,89.7
2017-10-14T09:17:27.823Z,89.51
2017-10-14T09:18:36.669Z,89.12
2017-10-14T09:19:45.742Z,88.84
2017-10-14T09:20:55.661Z,89.22
2017-10-14T09:22:04.889Z,89.51
2017-10-14T09:23:13.734Z,89.7
2017-10-14T09:24:22.575Z,89.32
2017-10-14T09:25:31.415Z,89.51
2017-10-14T09:26:40.379Z,89.41
2017-10-14T09:27:49.225Z,89.41
2017-10-14T09:28:58.066Z,89.99
2017-10-14T09:30:07.241Z,89.61
2017-10-14T09:31:16.267Z,89.41
2017-10-14T09:32:25.701Z,89.41
2017-10-14T09:33:34.991Z,89.79
2017-10-14T09:34:44.496Z,89.03
2017-10-14T09:35:53.361Z,89.61
2017-10-14T09:37:02.205Z,89.55
2017-10-14T09:38:11.052Z,89.7
2017-10-14T09:39:19.899Z,89.75
2017-10-14T09:40:28.738Z,89.79
2017-10-14T09:41:37.594Z,89.61
2017-10-14T09:42:46.428Z,89.79
2017-10-14T09:43:55.275Z,89.89
2017-10-14T09:45:04.584Z,89.7
2017-10-14T09:46:13.511Z,89.89
2017-10-14T09:47:22.402Z,89.89
2017-10-14T09:48:31.322Z,90.28
2017-10-14T09:49:40.656Z,90.18
2017-10-14T09:50:49.952Z,89.99
2017-10-14T09:51:58.879Z,89.55
2017-10-14T09:53:07.862Z,89.46
2017-10-14T09:54:16.775Z,89.84
2017-10-14T09:55:26.131Z,89.65
2017-10-14T09:56:35.056Z,89.65
2017-10-14T09:57:43.899Z,89.75
2017-10-14T09:58:52.745Z,89.55
2017-10-14T10:00:01.583Z,89.46
2017-10-14T10:01:10.427Z,89.46
2017-10-14T10:02:19.273Z,89.36
2017-10-14T10:03:28.120Z,89.46
2017-10-14T10:04:36.964Z,89.36
2017-10-14T10:05:45.802Z,89.46
2017-10-14T10:06:54.642Z,89.94
2017-10-14T10:08:03.487Z,89.65
2017-10-14T10:09:12.332Z,89.36
2017-10-14T10:10:21.513Z,89.55
2017-10-14T10:11:30.356Z,89.36
2017-10-14T10:12:39.201Z,89.75
2017-10-14T10:13:48.048Z,89.46
2017-10-14T10:14:56.887Z,89.46
2017-10-14T10:16:05.733Z,89.55
2017-10-14T10:17:14.575Z,89.75
2017-10-14T10:18:23.415Z,89.46
2017-10-14T10:19:32.263Z,89.55
2017-10-14T10:20:41.105Z,89.55
2017-10-14T10:21:49.947Z,89.65
2017-10-14T10:22:58.793Z,89.65
2017-10-14T10:24:07.635Z,89.07
2017-10-14T10:25:16.474Z,88.88
2017-10-14T10:26:25.323Z,89.07
2017-10-14T10:27:34.162Z,88.69
2017-10-14T10:28:43.008Z,88.79
2017-10-14T10:29:51.852Z,88.69
2017-10-14T10:31:00.694Z,88.88
2017-10-14T10:32:09.535Z,88.59
2017-10-14T10:33:18.375Z,88.49
2017-10-14T10:34:27.222Z,88.79
2017-10-14T10:35:36.068Z,88.69
2017-10-14T10:36:44.911Z,88.88
2017-10-14T10:37:53.751Z,88.69
2017-10-14T10:39:02.597Z,88.88
2017-10-14T10:40:11.441Z,88.69
2017-10-14T10:41:20.305Z,88.88
2017-10-14T10:42:29.142Z,89.07
2017-10-14T10:43:37.981Z,89.07
2017-10-14T10:44:46.833Z,89.17
2017-10-14T10:45:55.672Z,89.26
2017-10-14T10:47:04.521Z,88.69
2017-10-14T10:48:13.388Z,88.79
2017-10-14T10:49:22.272Z,88.98
2017-10-14T10:50:31.139Z,88.98
2017-10-14T10:51:40.009Z,89.07
2017-10-14T10:52:48.871Z,89.07
2017-10-14T10:53:57.730Z,88.79
2017-10-14T10:55:06.599Z,88.59
2017-10-14T10:56:15.465Z,88.88
2017-10-14T10:57:24.360Z,88.69
2017-10-14T10:58:33.237Z,88.98
2017-10-14T10:59:42.116Z,88.69
2017-10-14T11:00:50.956Z,89.07
2017-10-14T11:01:59.822Z,88.79
2017-10-14T11:03:08.688Z,89.17
2017-10-14T11:04:17.562Z,88.79
2017-10-14T11:05:26.442Z,88.88
2017-10-14T11:06:35.296Z,89.07
2017-10-14T11:07:44.160Z,88.88
2017-10-14T11:08:53.022Z,88.98
2017-10-14T11:10:01.889Z,89.55
2017-10-14T11:11:10.751Z,88.98
2017-10-14T11:12:19.618Z,89.55
2017-10-14T11:13:28.486Z,89.46
2017-10-14T11:14:37.355Z,89.46
2017-10-14T11:15:46.197Z,88.88
2017-10-14T11:16:55.042Z,89.36
2017-10-14T11:18:03.887Z,89.36
2017-10-14T11:19:12.737Z,89.46
2017-10-14T11:20:21.913Z,89.46
2017-10-14T11:21:30.807Z,89.75
2017-10-14T11:22:39.791Z,89.65
2017-10-14T11:23:48.634Z,89.46
2017-10-14T11:24:57.483Z,89.55
2017-10-14T11:26:06.322Z,89.75
2017-10-14T11:27:15.166Z,89.46
2017-10-14T11:28:24.011Z,89.75
2017-10-14T11:29:32.850Z,89.55
2017-10-14T11:30:41.695Z,89.65
2017-10-14T11:31:50.539Z,88.98
2017-10-14T11:32:59.383Z,89.07
2017-10-14T11:34:08.569Z,89.07
2017-10-14T11:35:17.414Z,88.88
2017-10-14T11:36:26.255Z,88.59
2017-10-14T11:37:35.094Z,88.79
2017-10-14T11:38:43.934Z,88.59
2017-10-14T11:39:52.782Z,89.17
2017-10-14T11:41:01.628Z,89.17
2017-10-14T11:42:10.478Z,89.07
2017-10-14T11:43:19.317Z,88.98
2017-10-14T11:44:28.163Z,89.17
2017-10-14T11:45:37.002Z,89.07
2017-10-14T11:46:45.850Z,89.07
2017-10-14T11:47:54.687Z,89.55
2017-10-14T11:49:03.561Z,88.88
2017-10-14T11:50:12.380Z,89.22
2017-10-14T11:51:21.562Z,89.07
2017-10-14T11:52:30.404Z,88.88
2017-10-14T11:53:39.586Z,88.88
2017-10-14T11:54:48.423Z,89.55
2017-10-14T11:55:57.267Z,89.55
2017-10-14T11:57:06.113Z,89.55
2017-10-14T11:58:14.954Z,88.79
2017-10-14T11:59:23.795Z,89.07
2017-10-14T12:00:32.644Z,89.07
2017-10-14T12:01:41.515Z,89.17
2017-10-14T12:02:50.699Z,89.26
2017-10-14T12:03:59.541Z,88.88
2017-10-14T12:05:08.378Z,88.93
2017-10-14T12:06:17.232Z,88.79
2017-10-14T12:07:26.074Z,88.79
2017-10-14T12:08:34.925Z,89.6
2017-10-14T12:09:43.764Z,89.46
2017-10-14T12:10:52.604Z,89.65
2017-10-14T12:12:01.453Z,89.31
2017-10-14T12:13:10.300Z,89.07
2017-10-14T12:14:19.523Z,88.93
2017-10-14T12:15:28.473Z,88.35
2017-10-14T12:16:37.721Z,88.4
2017-10-14T12:17:46.655Z,88.16
2017-10-14T12:18:55.618Z,88.35
2017-10-14T12:20:04.575Z,88.25
2017-10-14T12:21:13.535Z,87.77
2017-10-14T12:22:22.487Z,87.58
2017-10-14T12:23:31.510Z,87.77
2017-10-14T12:24:40.657Z,87.58
2017-10-14T12:25:49.819Z,87.1
2017-10-14T12:26:58.799Z,87.19
2017-10-14T12:28:07.881Z,87.39
2017-10-14T12:29:16.789Z,87.1
2017-10-14T12:30:25.887Z,87.29
2017-10-14T12:31:34.969Z,87.1
2017-10-14T12:32:44.005Z,86.91
2017-10-14T12:33:53.659Z,86.91
2017-10-14T12:35:02.592Z,87.01
2017-10-14T12:36:11.469Z,86.62
2017-10-14T12:37:20.329Z,86.43
2017-10-14T12:38:29.262Z,86.33
2017-10-14T12:39:38.160Z,86.43
2017-10-14T12:40:47.129Z,86.24
2017-10-14T12:41:56.022Z,86.43
2017-10-14T12:43:05.010Z,86.72
2017-10-14T12:44:14.076Z,86.52
2017-10-14T12:45:23.669Z,86.52
2017-10-14T12:46:32.732Z,86.43
2017-10-14T12:47:41.641Z,86.33
2017-10-14T12:48:50.754Z,86.05
2017-10-14T12:49:59.694Z,85.95
2017-10-14T12:51:08.869Z,86.24
2017-10-14T12:52:17.712Z,86.24
2017-10-14T12:53:26.555Z,86.24
2017-10-14T12:54:35.405Z,85.85
2017-10-14T12:55:44.253Z,85.95
2017-10-14T12:56:53.097Z,85.75
2017-10-14T12:58:01.943Z,86.52
2017-10-14T12:59:10.785Z,86.43
2017-10-14T13:00:19.627Z,86.24
2017-10-14T13:01:28.481Z,86.47
2017-10-14T13:02:37.315Z,86.38
2017-10-14T13:03:46.160Z,86.47
2017-10-14T13:04:55.006Z,86.81
2017-10-14T13:06:03.845Z,86.85
2017-10-14T13:07:12.689Z,86.91
2017-10-14T13:08:21.533Z,86.81
2017-10-14T13:09:30.382Z,87.01
2017-10-14T13:10:39.554Z,87.01
2017-10-14T13:11:48.396Z,86.95
2017-10-14T13:12:57.239Z,87.15
2017-10-14T13:14:06.088Z,87.15
2017-10-14T13:15:14.934Z,87.1
2017-10-14T13:16:23.786Z,86.66
2017-10-14T13:17:32.632Z,87.19
2017-10-14T13:18:41.491Z,87.29
2017-10-14T13:19:50.341Z,87.29
2017-10-14T13:20:59.186Z,87.1
2017-10-14T13:22:08.031Z,87.15
2017-10-14T13:23:16.871Z,87.29
2017-10-14T13:24:25.720Z,86.72
2017-10-14T13:25:34.570Z,87.39
2017-10-14T13:26:43.409Z,87.29
2017-10-14T13:27:52.251Z,87.39
2017-10-14T13:29:01.098Z,87.01
2017-10-14T13:30:09.939Z,87.01
2017-10-14T13:31:19.309Z,87.19
2017-10-14T13:32:28.297Z,87.19
2017-10-14T13:33:37.282Z,87.39
2017-10-14T13:34:46.178Z,87.49
2017-10-14T13:35:55.242Z,87.87
2017-10-14T13:37:04.232Z,87.39
2017-10-14T13:38:13.134Z,87.49
2017-10-14T13:39:22.072Z,87.39
2017-10-14T13:40:31.064Z,87.77
2017-10-14T13:41:40.013Z,87.39
2017-10-14T13:42:48.972Z,87.39
2017-10-14T13:43:57.963Z,87.01
2017-10-14T13:45:06.908Z,87.1
2017-10-14T13:46:15.882Z,87.1
2017-10-14T13:47:24.781Z,87.19
2017-10-14T13:48:33.696Z,87.01
2017-10-14T13:49:42.619Z,87.1
2017-10-14T13:50:51.778Z,87.01
2017-10-14T13:52:00.882Z,87.19
2017-10-14T13:53:09.927Z,87.29
2017-10-14T13:54:19.042Z,87.39
2017-10-14T13:55:28.054Z,87.34
2017-10-14T13:56:37.126Z,87.43
2017-10-14T13:57:46.262Z,87.43
2017-10-14T13:58:55.336Z,87.15
2017-10-14T14:00:04.285Z,87.15
2017-10-14T14:01:13.643Z,87.1
2017-10-14T14:02:22.669Z,87.1
2017-10-14T14:03:31.627Z,87.1
2017-10-14T14:04:40.645Z,87.01
2017-10-14T14:05:49.615Z,87.39
2017-10-14T14:06:58.581Z,87.68
2017-10-14T14:08:07.571Z,87.62
2017-10-14T14:09:16.570Z,87.49
2017-10-14T14:10:25.546Z,87.62
2017-10-14T14:11:34.524Z,87.43
2017-10-14T14:12:43.524Z,87.58
2017-10-14T14:13:52.513Z,87.87
2017-10-14T14:15:01.473Z,87.77
2017-10-14T14:16:10.467Z,88.39
2017-10-14T14:17:19.415Z,87.58
2017-10-14T14:18:28.373Z,87.49
2017-10-14T14:19:37.488Z,87.58
2017-10-14T14:20:46.531Z,87.58
2017-10-14T14:21:55.432Z,87.68
2017-10-14T14:23:04.395Z,87.58
2017-10-14T14:24:13.475Z,87.39
2017-10-14T14:25:22.449Z,87.87
2017-10-14T14:26:31.424Z,88.25
2017-10-14T14:27:40.341Z,88.35
2017-10-14T14:28:49.325Z,87.87
2017-10-14T14:29:58.342Z,88.06
2017-10-14T14:31:07.274Z,88.35
2017-10-14T14:32:16.245Z,88.49
2017-10-14T14:33:25.172Z,88.25
2017-10-14T14:34:34.161Z,88.16
2017-10-14T14:35:43.121Z,88.54
2017-10-14T14:36:52.094Z,88.39
2017-10-14T14:38:01.470Z,88.59
2017-10-14T14:39:10.376Z,88.35
2017-10-14T14:40:19.452Z,88.54
2017-10-14T14:41:28.756Z,88.35
2017-10-14T14:42:37.603Z,88.1
2017-10-14T14:43:46.450Z,88.1
2017-10-14T14:44:55.294Z,88.3
2017-10-14T14:46:04.142Z,88.01
2017-10-14T14:47:12.988Z,88.01
2017-10-14T14:48:21.827Z,88.3
2017-10-14T14:49:30.680Z,88.49